createdAt,value
2022-08-23T00:01:24.425Z,38.78
2022-08-23T00:04:11.596Z,39.21
2022-08-23T00:06:51.304Z,39.07
2022-08-23T00:09:26.261Z,39.16
2022-08-23T00:12:35.474Z,38.95
2022-08-23T00:15:12.862Z,38.90
2022-08-23T00:17:46.433Z,39.39
2022-08-23T00:20:22.096Z,39.44
2022-08-23T00:23:13.507Z,39.06
2022-08-23T00:25:49.941Z,39.27
2022-08-23T00:28:25.989Z,39.27
2022-08-23T00:31:02.786Z,39.47
2022-08-23T00:33:37.854Z,39.31
2022-08-23T00:36:11.039Z,39.33
2022-08-23T00:38:44.805Z,39.44
2022-08-23T00:41:21.507Z,39.29
2022-08-23T00:44:16.870Z,39.01
2022-08-23T00:47:11.730Z,39.25
2022-08-23T00:49:51.885Z,39.57
2022-08-23T00:52:43.560Z,39.50
2022-08-23T00:55:35.469Z,39.06
2022-08-23T00:58:08.987Z,39.47
2022-08-23T01:00:48.056Z,39.66
2022-08-23T01:03:42.134Z,39.26
2022-08-23T01:06:34.048Z,39.43
2022-08-23T01:09:14.976Z,39.62
2022-08-23T01:11:59.649Z,39.39
2022-08-23T01:14:39.958Z,39.03
2022-08-23T01:17:30.952Z,39.39
2022-08-23T01:20:21.488Z,39.32
2022-08-23T01:23:10.043Z,39.04
2022-08-23T01:25:46.537Z,39.17
2022-08-23T01:28:26.136Z,39.46
2022-08-23T01:31:02.446Z,39.47
2022-08-23T01:33:43.691Z,39.38
2022-08-23T01:36:28.330Z,39.05
2022-08-23T01:39:08.449Z,39.34
2022-08-23T01:41:48.397Z,39.53
2022-08-23T01:44:27.478Z,39.30
2022-08-23T01:47:03.214Z,39.00
2022-08-23T01:49:39.513Z,39.11
2022-08-23T01:52:07.456Z,39.58
2022-08-23T01:54:38.232Z,39.23
2022-08-23T01:57:14.630Z,38.93
2022-08-23T01:59:50.640Z,39.52
2022-08-23T02:02:25.005Z,39.18
2022-08-23T02:05:03.536Z,38.99
2022-08-23T02:07:41.339Z,39.06
2022-08-23T02:10:23.043Z,39.21
2022-08-23T02:13:00.435Z,39.22
2022-08-23T02:15:42.528Z,39.12
2022-08-23T02:18:21.699Z,38.89
2022-08-23T02:21:02.975Z,39.13
2022-08-23T02:23:42.372Z,39.39
2022-08-23T02:26:13.684Z,38.92
2022-08-23T02:28:56.381Z,39.16
2022-08-23T02:31:39.538Z,39.12
2022-08-23T02:34:19.199Z,39.41
2022-08-23T02:36:56.071Z,39.20
2022-08-23T02:39:33.062Z,39.18
2022-08-23T02:42:11.659Z,39.47
2022-08-23T02:44:52.824Z,39.30
2022-08-23T02:47:34.779Z,39.35
2022-08-23T02:50:22.389Z,39.33
2022-08-23T02:52:57.625Z,39.35
2022-08-23T02:55:31.327Z,39.54
2022-08-23T02:58:07.758Z,39.30
2022-08-23T03:00:41.416Z,39.50
2022-08-23T03:03:20.085Z,39.37
2022-08-23T03:06:24.901Z,39.89
2022-08-23T03:09:00.703Z,39.17
2022-08-23T03:11:37.200Z,39.70
2022-08-23T03:14:15.900Z,39.72
2022-08-23T03:16:47.270Z,39.65
2022-08-23T03:19:24.372Z,39.15
2022-08-23T03:22:00.941Z,39.60
2022-08-23T03:24:38.953Z,39.68
2022-08-23T03:27:15.006Z,39.42
2022-08-23T03:29:52.726Z,39.08
2022-08-23T03:32:40.312Z,39.69
2022-08-23T03:35:28.603Z,39.65
2022-08-23T03:38:02.905Z,40.00
2022-08-23T03:40:39.028Z,39.28
2022-08-23T03:43:14.836Z,39.69
2022-08-23T03:45:50.661Z,39.58
2022-08-23T03:48:24.958Z,39.47
2022-08-23T03:50:55.451Z,39.70
2022-08-23T03:53:27.453Z,39.80
2022-08-23T03:55:57.861Z,39.74
2022-08-23T03:58:45.188Z,39.95
2022-08-23T04:01:30.969Z,39.64
2022-08-23T04:04:10.974Z,39.89
2022-08-23T04:06:56.401Z,40.05
2022-08-23T04:09:31.128Z,40.18
2022-08-23T04:12:11.955Z,39.70
2022-08-23T04:14:49.295Z,40.04
2022-08-23T04:17:23.724Z,39.67
2022-08-23T04:19:57.913Z,39.95
2022-08-23T04:22:28.807Z,39.88
2022-08-23T04:24:58.344Z,39.77
2022-08-23T04:27:37.152Z,40.26
2022-08-23T04:30:10.229Z,40.04
2022-08-23T04:32:50.415Z,40.11
2022-08-23T04:35:22.570Z,40.14
2022-08-23T04:37:57.018Z,40.29
2022-08-23T04:40:52.856Z,40.29
2022-08-23T04:43:34.079Z,40.31
2022-08-23T04:46:10.452Z,40.29
2022-08-23T04:48:45.719Z,40.56
2022-08-23T04:51:22.329Z,40.15
2022-08-23T04:53:55.501Z,40.17
2022-08-23T04:56:56.321Z,40.26
2022-08-23T04:59:33.568Z,40.30
2022-08-23T05:02:07.124Z,39.97
2022-08-23T05:04:42.389Z,39.98
2022-08-23T05:07:18.474Z,40.31
2022-08-23T05:10:00.444Z,40.31
2022-08-23T05:12:31.819Z,39.83
2022-08-23T05:15:17.872Z,39.75
2022-08-23T05:17:56.386Z,39.99
2022-08-23T05:20:31.578Z,40.07
2022-08-23T05:23:05.018Z,40.11
2022-08-23T05:25:53.458Z,40.09
2022-08-23T05:28:51.511Z,40.36
2022-08-23T05:31:31.697Z,40.05
2022-08-23T05:34:12.730Z,39.68
2022-08-23T05:36:56.767Z,39.78
2022-08-23T05:39:45.818Z,40.13
2022-08-23T05:42:25.470Z,40.34
2022-08-23T05:45:14.006Z,39.92
2022-08-23T05:47:47.613Z,39.95
2022-08-23T05:50:55.793Z,40.00
2022-08-23T05:53:38.824Z,40.21
2022-08-23T05:56:20.043Z,39.74
2022-08-23T05:58:59.653Z,39.93
2022-08-23T06:01:41.143Z,40.20
2022-08-23T06:04:26.245Z,40.01
2022-08-23T06:07:03.544Z,40.18
2022-08-23T06:09:39.553Z,40.30
2022-08-23T06:12:13.248Z,40.29
2022-08-23T06:14:53.235Z,40.55
2022-08-23T06:17:30.310Z,40.72
2022-08-23T06:20:03.061Z,40.32
2022-08-23T06:23:05.592Z,40.67
2022-08-23T06:25:41.042Z,39.95
2022-08-23T06:28:28.430Z,40.42
2022-08-23T06:31:16.646Z,40.43
2022-08-23T06:34:00.543Z,39.76
2022-08-23T06:36:53.980Z,39.71
2022-08-23T06:39:56.113Z,39.63
2022-08-23T06:42:55.151Z,39.73
2022-08-23T06:45:34.796Z,39.72
2022-08-23T06:48:18.664Z,39.73
2022-08-23T06:50:52.027Z,40.02
2022-08-23T06:53:40.900Z,40.10
2022-08-23T06:56:42.221Z,39.49
2022-08-23T06:59:27.971Z,40.13
2022-08-23T07:02:09.395Z,40.08
2022-08-23T07:05:04.708Z,39.69
2022-08-23T07:08:08.043Z,40.32
2022-08-23T07:10:47.319Z,39.94
2022-08-23T07:13:26.943Z,40.32
2022-08-23T07:16:07.672Z,39.89
2022-08-23T07:18:40.293Z,40.28
2022-08-23T07:21:14.450Z,40.16
2022-08-23T07:23:51.152Z,40.28
2022-08-23T07:26:28.782Z,40.48
2022-08-23T07:29:07.954Z,40.60
2022-08-23T07:31:48.199Z,40.52
2022-08-23T07:34:22.566Z,40.30
2022-08-23T07:36:56.997Z,40.33
2022-08-23T07:39:34.634Z,40.52
2022-08-23T07:42:23.676Z,40.79
2022-08-23T07:45:10.092Z,40.42
2022-08-23T07:47:50.321Z,40.86
2022-08-23T07:50:30.477Z,40.95
2022-08-23T07:53:10.200Z,40.13
2022-08-23T07:55:49.656Z,40.06
2022-08-23T07:58:50.318Z,40.09
2022-08-23T08:01:48.101Z,40.38
2022-08-23T08:04:21.018Z,39.97
2022-08-23T08:07:18.721Z,40.17
2022-08-23T08:09:54.839Z,40.45
2022-08-23T08:12:37.699Z,40.38
2022-08-23T08:15:27.333Z,40.24
2022-08-23T08:18:12.176Z,40.22
2022-08-23T08:21:33.149Z,40.70
2022-08-23T08:24:32.994Z,40.38
2022-08-23T08:27:19.644Z,40.51
2022-08-23T08:29:56.438Z,40.48
2022-08-23T08:32:30.724Z,40.32
2022-08-23T08:35:12.079Z,40.45
2022-08-23T08:37:46.525Z,40.37
2022-08-23T08:40:30.874Z,40.97
2022-08-23T08:43:15.490Z,40.40
2022-08-23T08:46:22.608Z,40.77
2022-08-23T08:49:08.722Z,40.90
2022-08-23T08:51:52.593Z,40.26
2022-08-23T08:54:30.710Z,40.61
2022-08-23T08:57:15.756Z,40.40
2022-08-23T09:00:09.986Z,40.05
2022-08-23T09:02:50.459Z,40.37
2022-08-23T09:05:31.988Z,39.73
2022-08-23T09:08:28.184Z,39.88
2022-08-23T09:11:53.724Z,39.93
2022-08-23T09:15:06.033Z,39.94
2022-08-23T09:17:51.093Z,39.90
2022-08-23T09:20:33.562Z,39.67
2022-08-23T09:23:17.054Z,39.94
2022-08-23T09:26:04.009Z,40.11
2022-08-23T09:28:52.702Z,40.35
2022-08-23T09:31:47.747Z,39.97
2022-08-23T09:34:38.380Z,40.19
2022-08-23T09:37:17.424Z,39.85
2022-08-23T09:40:23.219Z,39.91
2022-08-23T09:43:29.238Z,39.98
2022-08-23T09:46:07.380Z,40.01
2022-08-23T09:48:47.099Z,39.75
2022-08-23T09:51:36.167Z,40.14
2022-08-23T09:54:34.496Z,40.04
2022-08-23T09:57:16.952Z,40.72
2022-08-23T09:59:51.966Z,40.15
2022-08-23T10:02:37.713Z,40.06
2022-08-23T10:05:39.515Z,39.69
2022-08-23T10:08:28.577Z,39.83
2022-08-23T10:11:21.426Z,40.28
2022-08-23T10:13:57.768Z,40.20
2022-08-23T10:16:44.113Z,39.59
2022-08-23T10:19:38.568Z,40.27
2022-08-23T10:22:27.263Z,40.37
2022-08-23T10:25:36.577Z,40.10
2022-08-23T10:29:08.293Z,40.04
2022-08-23T10:31:59.314Z,39.99
2022-08-23T10:35:06.527Z,39.67
2022-08-23T10:37:46.636Z,40.24
2022-08-23T10:40:37.995Z,39.83
2022-08-23T10:43:12.687Z,39.77
2022-08-23T10:46:00.225Z,39.81
2022-08-23T10:48:49.048Z,39.54
2022-08-23T10:51:31.460Z,39.42
2022-08-23T10:54:12.815Z,39.91
2022-08-23T10:56:51.267Z,40.12
2022-08-23T10:59:26.955Z,39.53
2022-08-23T11:02:08.149Z,39.90
2022-08-23T11:05:05.694Z,40.13
2022-08-23T11:07:44.442Z,39.80
2022-08-23T11:10:59.754Z,39.95
2022-08-23T11:13:53.189Z,40.13
2022-08-23T11:16:36.950Z,39.83
2022-08-23T11:19:46.654Z,39.81
2022-08-23T11:22:29.503Z,40.31
2022-08-23T11:25:32.822Z,40.43
2022-08-23T11:28:43.255Z,39.86
2022-08-23T11:31:17.152Z,40.29
2022-08-23T11:34:11.249Z,40.07
2022-08-23T11:37:17.746Z,39.96
2022-08-23T11:40:02.109Z,39.90
2022-08-23T11:42:52.374Z,40.23
2022-08-23T11:45:45.396Z,39.99
2022-08-23T11:48:37.646Z,40.58
2022-08-23T11:51:38.630Z,40.23
2022-08-23T11:54:42.067Z,40.11
2022-08-23T11:57:35.701Z,40.37
2022-08-23T12:00:17.463Z,40.04
2022-08-23T12:03:06.674Z,40.04
2022-08-23T12:05:48.936Z,40.06
2022-08-23T12:08:41.478Z,40.42
2022-08-23T12:11:16.797Z,39.90
2022-08-23T12:14:23.517Z,40.25
2022-08-23T12:16:56.749Z,39.92
2022-08-23T12:19:40.159Z,40.24
2022-08-23T12:22:13.453Z,40.37
2022-08-23T12:25:07.575Z,40.43
2022-08-23T12:27:46.885Z,40.26
2022-08-23T12:30:56.243Z,40.76
2022-08-23T12:33:54.349Z,40.99
2022-08-23T12:36:51.141Z,41.01
2022-08-23T12:39:40.344Z,40.99
2022-08-23T12:42:26.476Z,41.34
2022-08-23T12:45:20.052Z,41.56
2022-08-23T12:48:06.371Z,41.57
2022-08-23T12:50:46.003Z,41.76
2022-08-23T12:53:33.061Z,41.82
2022-08-23T12:56:11.887Z,41.63
2022-08-23T12:58:53.818Z,41.72
2022-08-23T13:01:38.595Z,41.77
2022-08-23T13:04:18.591Z,42.05
2022-08-23T13:07:09.820Z,41.66
2022-08-23T13:09:53.368Z,41.85
2022-08-23T13:12:35.633Z,41.71
2022-08-23T13:15:34.841Z,41.77
2022-08-23T13:18:07.733Z,41.73
2022-08-23T13:20:41.257Z,41.72
2022-08-23T13:23:23.880Z,42.10
2022-08-23T13:26:37.173Z,41.86
2022-08-23T13:29:22.604Z,41.81
2022-08-23T13:31:56.367Z,41.76
2022-08-23T13:34:47.382Z,41.72
2022-08-23T13:37:30.468Z,41.59
2022-08-23T13:40:07.673Z,41.83
2022-08-23T13:42:52.842Z,41.51
2022-08-23T13:45:26.682Z,41.68
2022-08-23T13:48:09.029Z,42.04
2022-08-23T13:50:42.482Z,41.91
2022-08-23T13:53:17.939Z,41.70
2022-08-23T13:56:00.130Z,41.97
2022-08-23T13:58:37.866Z,41.86
2022-08-23T14:01:19.222Z,41.54
2022-08-23T14:03:52.237Z,41.36
2022-08-23T14:06:28.481Z,41.53
2022-08-23T14:09:01.469Z,41.53
2022-08-23T14:11:32.609Z,41.26
2022-08-23T14:14:06.825Z,41.47
2022-08-23T14:16:40.844Z,41.52
2022-08-23T14:19:54.146Z,41.43
2022-08-23T14:22:12.233Z,41.40
2022-08-23T14:24:45.504Z,41.32
2022-08-23T14:27:13.390Z,41.66
2022-08-23T14:29:41.312Z,41.69
2022-08-23T14:32:09.354Z,41.30
2022-08-23T14:34:45.379Z,41.22
2022-08-23T14:38:03.020Z,41.53
2022-08-23T14:40:22.340Z,41.07
2022-08-23T14:42:56.848Z,41.17
2022-08-23T14:45:30.613Z,41.32
2022-08-23T14:48:01.154Z,41.19
2022-08-23T14:50:29.092Z,40.89
2022-08-23T14:53:00.219Z,40.88
2022-08-23T14:55:33.804Z,40.97
2022-08-23T14:58:05.983Z,40.74
2022-08-23T15:00:37.986Z,40.93
2022-08-23T15:03:10.212Z,41.03
2022-08-23T15:05:49.708Z,40.80
2022-08-23T15:08:24.111Z,40.83
2022-08-23T15:13:55.485Z,41.03
2022-08-23T15:16:26.847Z,40.60
2022-08-23T15:19:00.902Z,40.81
2022-08-23T15:21:31.205Z,40.85
2022-08-23T15:24:02.612Z,40.88
2022-08-23T15:26:34.065Z,40.46
2022-08-23T15:29:05.884Z,40.71
2022-08-23T15:31:35.811Z,41.48
2022-08-23T15:34:06.532Z,41.15
2022-08-23T15:36:44.251Z,41.14
2022-08-23T15:39:12.801Z,40.30
2022-08-23T15:41:47.490Z,41.07
2022-08-23T15:44:24.088Z,40.00
2022-08-23T15:46:57.443Z,40.18
2022-08-23T15:49:31.751Z,40.31
2022-08-23T15:52:06.158Z,39.97
2022-08-23T15:54:36.605Z,40.03
2022-08-23T15:57:07.750Z,40.27
2022-08-23T15:59:37.989Z,40.29
2022-08-23T16:02:06.611Z,40.35
2022-08-23T16:04:42.307Z,40.12
2022-08-23T16:07:17.666Z,40.60
2022-08-23T16:09:48.211Z,40.66
2022-08-23T16:12:16.405Z,40.76
2022-08-23T16:14:44.486Z,40.74
2022-08-23T16:17:15.088Z,41.06
2022-08-23T16:19:46.415Z,40.92
2022-08-23T16:22:18.195Z,41.04
2022-08-23T16:24:54.487Z,40.90
2022-08-23T16:27:25.799Z,40.35
2022-08-23T16:30:01.145Z,40.53
2022-08-23T16:32:33.618Z,40.24
2022-08-23T16:35:04.556Z,40.29
2022-08-23T16:37:39.536Z,40.07
2022-08-23T16:40:11.607Z,40.09
2022-08-23T16:42:39.273Z,40.00
2022-08-23T16:45:11.721Z,39.88
2022-08-23T16:47:47.334Z,40.13
2022-08-23T16:50:15.326Z,40.00
2022-08-23T16:52:48.669Z,39.96
2022-08-23T16:55:19.813Z,39.93
2022-08-23T16:57:58.562Z,39.70
2022-08-23T17:00:51.430Z,39.80
2022-08-23T17:03:19.790Z,39.84
2022-08-23T17:05:50.722Z,39.93
2022-08-23T17:08:26.354Z,40.08
2022-08-23T17:10:54.140Z,39.84
2022-08-23T17:13:27.629Z,39.81
2022-08-23T17:16:00.274Z,40.04
2022-08-23T17:18:31.374Z,39.97
2022-08-23T17:21:13.058Z,39.92
2022-08-23T17:23:43.821Z,39.94
2022-08-23T17:26:11.710Z,40.06
2022-08-23T17:28:43.126Z,39.88
2022-08-23T17:31:22.369Z,39.90
2022-08-23T17:33:53.089Z,39.92
2022-08-23T17:36:54.291Z,40.15
2022-08-23T17:39:27.489Z,40.13
2022-08-23T17:41:57.717Z,40.11
2022-08-23T17:44:29.821Z,40.19
2022-08-23T17:47:02.168Z,40.05
2022-08-23T17:49:36.912Z,39.69
2022-08-23T17:52:06.397Z,39.95
2022-08-23T17:54:41.452Z,40.09
2022-08-23T17:57:13.758Z,40.05
2022-08-23T17:59:44.001Z,40.20
2022-08-23T18:02:15.463Z,40.09
2022-08-23T18:04:46.463Z,40.32
2022-08-23T18:07:18.701Z,40.21
2022-08-23T18:09:49.491Z,40.07
2022-08-23T18:12:24.565Z,40.35
2022-08-23T18:14:54.257Z,40.38
2022-08-23T18:17:26.479Z,40.19
2022-08-23T18:19:56.225Z,40.22
2022-08-23T18:22:27.694Z,40.21
2022-08-23T18:25:00.319Z,40.29
2022-08-23T18:27:51.745Z,40.30
2022-08-23T18:30:25.016Z,40.22
2022-08-23T18:32:53.017Z,40.57
2022-08-23T18:35:29.478Z,40.34
2022-08-23T18:38:08.085Z,39.83
2022-08-23T18:40:48.268Z,40.20
2022-08-23T18:43:23.357Z,40.23
2022-08-23T18:45:53.643Z,40.25
2022-08-23T18:48:26.358Z,39.94
2022-08-23T18:50:56.043Z,40.26
2022-08-23T18:53:26.364Z,40.28
2022-08-23T18:55:59.427Z,40.15
2022-08-23T18:58:30.566Z,40.37
2022-08-23T19:01:06.554Z,40.36
2022-08-23T19:03:39.973Z,40.21
2022-08-23T19:06:11.965Z,40.27
2022-08-23T19:08:41.749Z,40.33
2022-08-23T19:11:12.736Z,40.45
2022-08-23T19:13:40.612Z,40.45
2022-08-23T19:16:20.161Z,40.62
2022-08-23T19:18:53.209Z,40.62
2022-08-23T19:21:25.639Z,40.32
2022-08-23T19:23:59.841Z,40.52
2022-08-23T19:26:37.548Z,40.15
2022-08-23T19:29:08.541Z,40.54
2022-08-23T19:31:42.780Z,40.15
2022-08-23T19:34:12.983Z,40.48
2022-08-23T19:36:46.895Z,40.71
2022-08-23T19:39:21.341Z,40.67
2022-08-23T19:41:59.042Z,40.31
2022-08-23T19:44:28.167Z,40.78
2022-08-23T19:47:00.091Z,40.29
2022-08-23T19:49:35.973Z,40.65
2022-08-23T19:52:07.706Z,40.82
2022-08-23T19:54:40.430Z,40.63
2022-08-23T19:57:10.838Z,40.70
2022-08-23T19:59:43.491Z,40.61
2022-08-23T20:02:18.261Z,40.66
2022-08-23T20:04:48.721Z,40.57
2022-08-23T20:07:19.154Z,40.48
2022-08-23T20:09:49.563Z,40.50
2022-08-23T20:12:22.581Z,40.52
2022-08-23T20:14:55.228Z,40.34
2022-08-23T20:17:33.685Z,40.47
2022-08-23T20:20:01.322Z,40.67
2022-08-23T20:22:51.508Z,40.56
2022-08-23T20:25:21.284Z,40.63
2022-08-23T20:27:54.883Z,40.60
2022-08-23T20:30:25.586Z,40.59
2022-08-23T20:32:58.653Z,40.39
2022-08-23T20:35:26.428Z,40.83
2022-08-23T20:38:00.934Z,40.85
2022-08-23T20:40:31.290Z,40.63
2022-08-23T20:43:01.980Z,40.54
2022-08-23T20:45:33.385Z,40.61
2022-08-23T20:48:04.067Z,40.61
2022-08-23T20:50:38.249Z,40.82
2022-08-23T20:53:12.932Z,40.64
2022-08-23T20:55:46.800Z,40.68
2022-08-23T20:58:14.494Z,40.69
2022-08-23T21:00:43.211Z,40.55
2022-08-23T21:03:10.845Z,40.61
2022-08-23T21:05:41.678Z,40.69
2022-08-23T21:08:15.613Z,40.46
2022-08-23T21:10:51.551Z,41.05
2022-08-23T21:13:22.592Z,40.54
2022-08-23T21:15:50.250Z,40.61
2022-08-23T21:18:20.412Z,40.67
2022-08-23T21:20:51.602Z,40.85
2022-08-23T21:23:26.732Z,40.70
2022-08-23T21:25:58.515Z,40.84
2022-08-23T21:28:27.738Z,40.74
2022-08-23T21:31:07.019Z,40.60
2022-08-23T21:33:40.436Z,40.86
2022-08-23T21:36:11.501Z,40.57
2022-08-23T21:38:45.467Z,40.75
2022-08-23T21:41:37.886Z,40.59
2022-08-23T21:44:11.235Z,40.75
2022-08-23T21:46:39.445Z,40.84
2022-08-23T21:49:12.910Z,40.98
2022-08-23T21:51:42.210Z,40.73
2022-08-23T21:54:13.214Z,40.77
2022-08-23T21:56:46.047Z,40.77
2022-08-23T21:59:18.249Z,40.91
2022-08-23T22:01:46.742Z,40.82
2022-08-23T22:04:17.880Z,41.00
2022-08-23T22:06:50.405Z,40.71
2022-08-23T22:09:31.475Z,40.62
2022-08-23T22:12:00.568Z,40.86
2022-08-23T22:14:31.710Z,40.54
2022-08-23T22:17:05.310Z,40.95
2022-08-23T22:19:34.631Z,40.51
2022-08-23T22:22:05.400Z,40.72
2022-08-23T22:24:35.425Z,40.89
2022-08-23T22:27:08.833Z,41.07
2022-08-23T22:29:41.353Z,40.88
2022-08-23T22:32:15.240Z,40.71
2022-08-23T22:34:47.358Z,40.92
2022-08-23T22:37:16.326Z,41.12
2022-08-23T22:39:46.834Z,41.00
2022-08-23T22:42:19.889Z,40.97
2022-08-23T22:44:59.914Z,40.78
2022-08-23T22:47:33.498Z,40.92
2022-08-23T22:50:06.399Z,40.75
2022-08-23T22:52:37.191Z,40.85
2022-08-23T22:55:05.508Z,40.61
2022-08-23T22:57:37.901Z,40.80
2022-08-23T23:00:11.770Z,40.89
2022-08-23T23:02:44.958Z,40.92
2022-08-23T23:05:14.903Z,40.97
2022-08-23T23:08:03.939Z,41.09
2022-08-23T23:10:31.641Z,40.61
2022-08-23T23:13:05.147Z,40.81
2022-08-23T23:15:32.634Z,40.98
2022-08-23T23:18:00.088Z,40.57
2022-08-23T23:20:42.283Z,40.62
2022-08-23T23:23:15.874Z,40.61
2022-08-23T23:25:46.153Z,40.86
2022-08-23T23:28:18.291Z,40.79
2022-08-23T23:30:51.238Z,41.06
2022-08-23T23:33:20.697Z,40.94
2022-08-23T23:35:53.156Z,40.99
2022-08-23T23:38:28.461Z,41.18
2022-08-23T23:41:05.514Z,40.90
2022-08-23T23:43:35.708Z,40.93
2022-08-23T23:46:13.543Z,40.93
2022-08-23T23:48:46.723Z,40.85
2022-08-23T23:51:22.692Z,40.95
2022-08-23T23:53:54.461Z,41.11
2022-08-23T23:56:25.781Z,40.98
2022-08-23T23:59:00.655Z,40.79
